createdAt,value
2018-04-10T00:01:04.571Z,54.60
2018-04-10T00:03:33.493Z,55.00
2018-04-10T00:06:02.474Z,54.50
2018-04-10T00:08:31.397Z,55.30
2018-04-10T00:11:00.343Z,55.20
2018-04-10T00:13:29.286Z,55.60
2018-04-10T00:15:58.234Z,55.40
2018-04-10T00:18:27.160Z,54.70
2018-04-10T00:20:56.103Z,54.20
2018-04-10T00:23:25.032Z,53.90
2018-04-10T00:25:53.949Z,54.40
2018-04-10T00:28:22.854Z,55.80
2018-04-10T00:30:51.747Z,56.30
2018-04-10T00:33:20.680Z,56.80
2018-04-10T00:35:49.614Z,56.10
2018-04-10T00:38:18.588Z,55.70
2018-04-10T00:40:47.503Z,55.00
2018-04-10T00:43:16.503Z,54.70
2018-04-10T00:45:45.489Z,54.20
2018-04-10T00:48:14.432Z,54.40
2018-04-10T00:50:43.418Z,55.40
2018-04-10T00:56:19.459Z,54.90
2018-04-10T00:58:48.372Z,55.60
2018-04-10T01:01:18.008Z,56.90
2018-04-10T01:03:46.952Z,56.80
2018-04-10T01:06:16.705Z,57.30
2018-04-10T01:08:45.607Z,57.20
2018-04-10T01:11:14.541Z,57.50
2018-04-10T01:13:44.207Z,58.00
2018-04-10T01:16:13.173Z,57.90
2018-04-10T01:18:42.113Z,57.60
2018-04-10T01:21:11.082Z,57.00
2018-04-10T01:23:40.808Z,57.00
2018-04-10T01:26:09.700Z,56.80
2018-04-10T01:28:38.680Z,56.60
2018-04-10T01:31:07.647Z,56.80
2018-04-10T01:33:36.536Z,57.00
2018-04-10T01:36:05.514Z,57.00
2018-04-10T01:38:34.442Z,57.00
2018-04-10T01:41:03.359Z,57.10
2018-04-10T01:43:32.314Z,57.20
2018-04-10T01:46:01.257Z,57.40
2018-04-10T01:48:30.949Z,57.60
2018-04-10T01:51:00.233Z,57.50
2018-04-10T01:53:29.185Z,57.70
2018-04-10T01:55:58.093Z,57.80
2018-04-10T01:58:27.027Z,57.90
2018-04-10T02:00:55.974Z,58.00
2018-04-10T02:03:24.917Z,58.30
2018-04-10T02:05:53.865Z,58.10
2018-04-10T02:08:22.793Z,57.90
2018-04-10T02:13:26.513Z,58.70
2018-04-10T02:15:55.459Z,58.60
2018-04-10T02:18:24.363Z,58.70
2018-04-10T02:20:53.320Z,59.00
2018-04-10T02:23:22.211Z,59.20
2018-04-10T02:25:51.118Z,59.30
2018-04-10T02:28:20.030Z,59.20
2018-04-10T02:30:48.965Z,59.50
2018-04-10T02:33:18.643Z,59.90
2018-04-10T02:35:47.607Z,59.90
2018-04-10T02:38:16.536Z,59.00
2018-04-10T02:40:45.408Z,58.80
2018-04-10T02:43:14.354Z,58.60
2018-04-10T02:45:44.023Z,58.40
2018-04-10T02:48:12.943Z,58.40
2018-04-10T02:50:42.637Z,58.20
2018-04-10T02:53:11.572Z,58.20
2018-04-10T02:55:40.505Z,58.60
2018-04-10T02:58:09.461Z,58.30
2018-04-10T03:00:38.404Z,58.80
2018-04-10T03:03:07.341Z,59.60
2018-04-10T03:05:36.320Z,60.00
2018-04-10T03:08:05.237Z,60.00
2018-04-10T03:10:34.159Z,60.00
2018-04-10T03:13:03.089Z,60.60
2018-04-10T03:15:32.127Z,60.60
2018-04-10T03:18:01.057Z,59.60
2018-04-10T03:20:30.743Z,58.20
2018-04-10T03:22:59.616Z,58.20
2018-04-10T03:25:28.561Z,57.20
2018-04-10T03:27:57.532Z,56.90
2018-04-10T03:30:26.469Z,56.30
2018-04-10T03:32:55.397Z,55.90
2018-04-10T03:35:24.331Z,55.60
2018-04-10T03:37:53.277Z,55.40
2018-04-10T03:40:22.257Z,55.50
2018-04-10T03:42:51.371Z,56.80
2018-04-10T03:45:20.326Z,57.40
2018-04-10T03:47:49.293Z,57.50
2018-04-10T03:50:18.204Z,57.00
2018-04-10T03:52:47.135Z,57.20
2018-04-10T03:55:16.093Z,56.50
2018-04-10T03:57:44.967Z,57.00
2018-04-10T04:00:13.917Z,57.80
2018-04-10T04:02:42.837Z,57.30
2018-04-10T04:05:11.740Z,58.90
2018-04-10T04:07:40.700Z,56.60
2018-04-10T04:10:10.389Z,56.60
2018-04-10T04:12:39.319Z,56.60
2018-04-10T04:15:08.230Z,56.90
2018-04-10T04:17:37.178Z,57.30
2018-04-10T04:20:23.893Z,57.10
2018-04-10T04:22:52.834Z,58.00
2018-04-10T04:25:21.751Z,56.70
2018-04-10T04:27:50.664Z,56.20
2018-04-10T04:30:20.337Z,56.60
2018-04-10T04:32:49.224Z,56.50
2018-04-10T04:35:18.176Z,58.80
2018-04-10T04:37:47.105Z,59.30
2018-04-10T04:40:15.992Z,60.10
2018-04-10T06:04:44.454Z,58.40
2018-04-10T06:07:14.138Z,33.30
2018-04-10T06:09:43.052Z,33.20
2018-04-10T06:12:12.776Z,29.60
2018-04-10T06:14:41.690Z,29.50
2018-04-10T06:17:10.610Z,28.40
2018-04-10T06:19:39.572Z,28.70
2018-04-10T06:22:08.493Z,28.60
2018-04-10T06:24:37.414Z,27.80
2018-04-10T06:27:07.121Z,27.50
2018-04-10T06:29:36.809Z,28.00
2018-04-10T06:32:05.778Z,28.00
2018-04-10T06:34:34.695Z,27.80
2018-04-10T06:37:03.600Z,28.00
2018-04-10T06:39:33.290Z,27.80
2018-04-10T06:42:02.235Z,27.20
2018-04-10T06:44:31.132Z,27.10
2018-04-10T06:47:00.083Z,26.50
2018-04-10T06:49:30.042Z,25.20
2018-04-10T06:51:58.990Z,25.10
2018-04-10T06:54:27.937Z,24.90
2018-04-10T06:56:56.856Z,24.50
2018-04-10T06:59:25.774Z,26.60
2018-04-10T07:01:54.693Z,27.90
2018-04-10T07:04:23.602Z,29.40
2018-04-10T07:06:52.593Z,29.90
2018-04-10T07:09:21.471Z,29.80
2018-04-10T07:11:50.485Z,30.60
2018-04-10T07:14:19.429Z,30.20
2018-04-10T07:16:48.379Z,31.10
2018-04-10T07:19:17.354Z,29.80
2018-04-10T07:21:46.281Z,30.30
2018-04-10T07:24:15.213Z,29.40
2018-04-10T07:26:44.147Z,28.80
2018-04-10T07:29:13.076Z,30.00
2018-04-10T07:31:41.991Z,29.60
2018-04-10T07:34:10.974Z,29.10
2018-04-10T07:36:39.905Z,29.80
2018-04-10T07:39:08.853Z,28.90
2018-04-10T07:41:37.769Z,28.70
2018-04-10T07:44:06.668Z,30.40
2018-04-10T07:46:35.616Z,32.90
2018-04-10T07:49:04.617Z,32.60
2018-04-10T07:51:33.551Z,32.20
2018-04-10T07:54:02.460Z,31.40
2018-04-10T07:56:31.453Z,34.90
2018-04-10T07:59:00.394Z,36.70
2018-04-10T08:01:29.385Z,37.50
2018-04-10T08:03:58.362Z,39.30
2018-04-10T08:06:27.283Z,41.00
2018-04-10T08:08:56.297Z,42.20
2018-04-10T08:11:25.252Z,43.10
2018-04-10T08:13:54.169Z,44.00
2018-04-10T08:16:23.121Z,45.20
2018-04-10T08:18:52.097Z,45.90
2018-04-10T08:21:21.824Z,47.10
2018-04-10T08:23:50.761Z,47.00
2018-04-10T08:26:19.745Z,47.00
2018-04-10T08:28:48.663Z,46.80
2018-04-10T08:31:17.587Z,45.70
2018-04-10T08:33:46.509Z,44.90
2018-04-10T08:36:15.396Z,41.50
2018-04-10T08:38:44.288Z,38.80
2018-04-10T08:41:13.277Z,38.30
2018-04-10T08:43:42.214Z,37.50
2018-04-10T08:46:11.194Z,36.40
2018-04-10T08:48:40.101Z,36.10
2018-04-10T08:51:09.036Z,35.20
2018-04-10T08:53:37.967Z,32.90
2018-04-10T08:56:06.919Z,30.20
2018-04-10T08:58:35.849Z,29.10
2018-04-10T09:01:05.572Z,28.00
2018-04-10T09:03:35.313Z,28.10
2018-04-10T09:06:04.242Z,28.00
2018-04-10T09:08:33.181Z,28.20
2018-04-10T09:11:02.943Z,27.20
2018-04-10T09:13:31.890Z,27.10
2018-04-10T09:16:00.830Z,27.50
2018-04-10T09:18:29.801Z,28.30
2018-04-10T09:20:58.749Z,29.10
2018-04-10T09:23:28.458Z,33.50
2018-04-10T09:25:57.465Z,33.50
2018-04-10T09:28:27.168Z,33.70
2018-04-10T09:30:56.048Z,33.70
2018-04-10T09:33:25.789Z,36.30
2018-04-10T09:35:54.781Z,35.90
2018-04-10T09:38:23.670Z,37.40
2018-04-10T09:40:52.664Z,37.60
2018-04-10T09:43:21.603Z,39.00
2018-04-10T09:45:50.558Z,38.10
2018-04-10T09:48:19.498Z,37.80
2018-04-10T09:50:48.443Z,37.90
2018-04-10T09:53:18.162Z,38.10
2018-04-10T09:55:47.120Z,38.10
2018-04-10T09:58:15.995Z,39.50
2018-04-10T10:00:45.708Z,40.00
2018-04-10T10:03:15.466Z,42.00
2018-04-10T10:05:44.433Z,41.90
2018-04-10T10:08:13.357Z,41.60
2018-04-10T10:10:42.299Z,41.60
2018-04-10T10:13:12.033Z,41.50
2018-04-10T10:15:40.969Z,41.40
2018-04-10T10:18:09.915Z,41.70
2018-04-10T10:20:38.851Z,42.70
2018-04-10T10:23:07.748Z,43.90
2018-04-10T10:25:36.679Z,43.30
2018-04-10T10:28:05.601Z,43.70
2018-04-10T10:30:34.531Z,44.00
2018-04-10T10:33:03.553Z,43.70
2018-04-10T10:35:32.493Z,44.00
2018-04-10T10:38:01.417Z,43.10
2018-04-10T10:40:31.154Z,42.30
2018-04-10T10:43:00.037Z,42.30
2018-04-10T10:45:28.954Z,42.20
2018-04-10T10:47:57.933Z,41.90
2018-04-10T10:50:26.845Z,41.50
2018-04-10T10:52:55.748Z,40.80
2018-04-10T10:55:24.718Z,40.50
2018-04-10T10:57:54.426Z,41.00
2018-04-10T11:00:23.372Z,40.90
2018-04-10T11:02:53.093Z,39.30
2018-04-10T11:05:22.024Z,39.20
2018-04-10T11:07:50.913Z,38.70
2018-04-10T11:10:19.875Z,36.20
2018-04-10T11:12:48.822Z,35.80
2018-04-10T11:15:17.911Z,37.50
2018-04-10T11:17:46.874Z,37.50
2018-04-10T11:20:15.769Z,38.10
2018-04-10T11:22:44.662Z,38.20
2018-04-10T11:25:13.645Z,37.80
2018-04-10T11:27:42.567Z,36.60
2018-04-10T11:30:11.469Z,34.70
2018-04-10T11:32:40.412Z,34.90
2018-04-10T11:35:09.414Z,35.20
2018-04-10T11:37:38.328Z,37.00
2018-04-10T11:40:07.424Z,36.80
2018-04-10T11:42:36.332Z,37.60
2018-04-10T11:45:05.295Z,36.90
2018-04-10T11:47:34.244Z,38.20
2018-04-10T11:50:03.975Z,38.50
2018-04-10T11:52:32.917Z,38.50
2018-04-10T11:55:01.859Z,37.40
2018-04-10T11:57:30.815Z,38.10
2018-04-10T11:59:59.712Z,38.70
2018-04-10T12:02:29.379Z,36.10
2018-04-10T12:04:58.353Z,36.00
2018-04-10T12:07:27.432Z,36.70
2018-04-10T12:09:56.637Z,38.30
2018-04-10T12:12:26.698Z,38.80
2018-04-10T12:14:55.709Z,40.30
2018-04-10T12:17:25.535Z,42.60
2018-04-10T12:19:55.181Z,43.90
2018-04-10T12:22:24.162Z,43.80
2018-04-10T12:24:53.074Z,47.00
2018-04-10T12:27:22.025Z,48.10
2018-04-10T12:29:50.969Z,49.00
2018-04-10T12:32:19.976Z,48.90
2018-04-10T12:34:48.922Z,48.60
2018-04-10T12:37:17.853Z,48.40
2018-04-10T12:39:46.801Z,48.00
2018-04-10T12:42:15.775Z,47.30
2018-04-10T12:44:44.708Z,47.00
2018-04-10T12:47:13.709Z,45.80
2018-04-10T12:49:42.650Z,46.30
2018-04-10T12:52:11.848Z,46.60
2018-04-10T12:54:40.805Z,45.80
2018-04-10T12:57:09.982Z,46.00
2018-04-10T12:59:38.955Z,46.40
2018-04-10T13:02:07.960Z,47.30
2018-04-10T13:04:36.832Z,47.30
2018-04-10T13:07:05.804Z,47.00
2018-04-10T13:09:34.753Z,47.60
2018-04-10T13:12:03.702Z,49.30
2018-04-10T13:14:32.591Z,52.50
2018-04-10T13:17:01.481Z,51.60
2018-04-10T13:19:30.498Z,53.60
2018-04-10T13:21:59.475Z,54.80
2018-04-10T13:24:28.394Z,57.30
2018-04-10T13:26:57.327Z,58.40
2018-04-10T13:29:27.040Z,59.80
2018-04-10T13:31:56.030Z,59.80
2018-04-10T13:34:24.968Z,60.60
2018-04-10T13:36:53.872Z,59.50
2018-04-10T13:39:22.826Z,59.20
2018-04-10T13:41:51.737Z,58.40
2018-04-10T13:44:20.635Z,59.00
2018-04-10T13:46:49.632Z,57.40
2018-04-10T13:49:18.531Z,57.00
2018-04-10T13:51:47.486Z,57.80
2018-04-10T13:54:16.493Z,57.70
2018-04-10T13:56:45.380Z,58.60
2018-04-10T13:59:14.318Z,58.00
2018-04-10T14:01:44.077Z,57.90
2018-04-10T14:04:13.058Z,57.50
2018-04-10T14:06:41.951Z,57.80
2018-04-10T14:09:10.895Z,58.60
2018-04-10T14:11:39.855Z,59.70
2018-04-10T14:14:08.784Z,59.70
2018-04-10T14:16:37.763Z,59.80
2018-04-10T14:19:06.733Z,62.60
2018-04-10T14:21:35.692Z,57.20
2018-04-10T14:24:04.677Z,62.20
2018-04-10T14:26:33.609Z,62.40
2018-04-10T14:29:02.565Z,64.60
2018-04-10T14:31:31.529Z,67.50
2018-04-10T14:34:01.197Z,67.60
2018-04-10T14:36:30.104Z,67.60
2018-04-10T14:38:59.089Z,68.60
2018-04-10T14:41:28.062Z,70.70
2018-04-10T14:43:56.977Z,73.00
2018-04-10T14:46:25.958Z,73.30
2018-04-10T14:48:54.871Z,72.90
2018-04-10T14:51:23.829Z,73.10
2018-04-10T14:53:52.828Z,75.60
2018-04-10T14:56:21.743Z,73.00
2018-04-10T14:58:50.711Z,74.10
2018-04-10T15:01:19.726Z,75.60
2018-04-10T15:03:48.681Z,76.40
2018-04-10T15:06:17.610Z,77.40
2018-04-10T15:08:46.581Z,78.70
2018-04-10T15:11:15.473Z,76.70
2018-04-10T15:13:44.391Z,82.40
2018-04-10T15:16:14.705Z,80.40
2018-04-10T15:18:43.711Z,79.50
2018-04-10T15:21:12.632Z,80.00
2018-04-10T15:23:41.576Z,78.40
2018-04-10T15:26:10.472Z,78.30
2018-04-10T15:28:39.481Z,78.60
2018-04-10T15:31:08.397Z,78.80
2018-04-10T15:33:37.306Z,80.60
2018-04-10T15:36:06.298Z,81.30
2018-04-10T15:38:35.277Z,79.70
2018-04-10T15:41:04.410Z,79.40
2018-04-10T15:43:33.310Z,80.40
2018-04-10T15:46:02.231Z,79.00
2018-04-10T15:48:31.914Z,79.90
2018-04-10T15:51:00.854Z,79.80
2018-04-10T15:53:29.755Z,78.20
2018-04-10T15:55:58.678Z,78.80
2018-04-10T15:58:27.590Z,78.70
2018-04-10T16:00:56.565Z,78.40
2018-04-10T16:03:25.532Z,78.90
2018-04-10T16:05:54.749Z,78.20
2018-04-10T16:08:23.728Z,79.30
2018-04-10T16:10:52.660Z,79.90
2018-04-10T16:13:21.594Z,78.80
2018-04-10T16:15:54.188Z,79.10
2018-04-10T16:18:23.173Z,80.00
2018-04-10T16:20:52.073Z,79.70
2018-04-10T16:23:21.013Z,80.10
2018-04-10T16:25:50.873Z,79.70
2018-04-10T16:28:19.820Z,79.70
2018-04-10T16:30:49.620Z,79.80
2018-04-10T16:33:18.548Z,79.70
2018-04-10T16:35:47.485Z,79.70
2018-04-10T16:38:16.427Z,79.00
2018-04-10T16:40:45.352Z,79.20
2018-04-10T16:43:14.322Z,78.00
2018-04-10T16:45:43.297Z,78.80
2018-04-10T16:48:12.233Z,79.00
2018-04-10T16:50:41.159Z,78.40
2018-04-10T16:53:10.182Z,77.50
2018-04-10T16:55:39.134Z,78.20
2018-04-10T16:58:08.123Z,77.80
2018-04-10T17:00:37.090Z,77.70
2018-04-10T17:03:06.052Z,78.60
2018-04-10T17:05:35.064Z,78.50
2018-04-10T17:08:04.095Z,78.50
2018-04-10T17:10:33.071Z,79.20
2018-04-10T17:13:02.010Z,78.20
2018-04-10T17:15:31.065Z,79.20
2018-04-10T17:18:00.075Z,78.70
2018-04-10T17:20:30.013Z,80.50
2018-04-10T17:22:59.141Z,80.40
2018-04-10T17:25:28.313Z,79.90
2018-04-10T17:27:58.036Z,79.80
2018-04-10T17:30:27.169Z,78.20
2018-04-10T17:32:56.267Z,78.80
2018-04-10T17:35:25.276Z,80.10
2018-04-10T17:37:55.165Z,81.30
2018-04-10T17:40:25.090Z,81.20
2018-04-10T17:42:54.484Z,81.40
2018-04-10T17:45:24.335Z,82.20
2018-04-10T17:47:53.946Z,81.80
2018-04-10T17:50:23.157Z,81.80
2018-04-10T17:52:52.384Z,82.30
2018-04-10T17:55:21.477Z,82.20
2018-04-10T17:57:51.449Z,82.50
2018-04-10T18:00:20.654Z,82.10
2018-04-10T18:02:49.739Z,82.20
2018-04-10T18:05:18.986Z,82.20
2018-04-10T18:07:48.115Z,82.40
2018-04-10T18:10:17.218Z,82.50
2018-04-10T18:12:47.017Z,83.30
2018-04-10T18:15:16.073Z,83.30
2018-04-10T18:17:46.038Z,84.00
2018-04-10T18:20:15.112Z,84.10
2018-04-10T18:22:44.340Z,82.50
2018-04-10T18:25:14.179Z,83.10
2018-04-10T18:27:43.353Z,83.10
2018-04-10T18:30:12.506Z,82.90
2018-04-10T18:32:41.596Z,83.50
2018-04-10T18:35:10.903Z,83.80
2018-04-10T18:37:39.971Z,84.40
2018-04-10T18:40:09.538Z,84.10
2018-04-10T18:42:39.568Z,84.70
2018-04-10T18:45:08.770Z,84.50
2018-04-10T18:47:37.853Z,84.90
2018-04-10T18:50:06.937Z,85.10
2018-04-10T18:52:36.760Z,85.30
2018-04-10T18:55:06.053Z,85.20
2018-04-10T18:57:35.919Z,85.50
2018-04-10T19:00:05.086Z,85.40
2018-04-10T19:02:34.275Z,85.50
2018-04-10T19:05:03.475Z,85.50
2018-04-10T19:07:32.518Z,85.90
2018-04-10T19:10:01.574Z,86.00
2018-04-10T19:12:30.626Z,86.00
2018-04-10T19:14:59.617Z,85.80
2018-04-10T19:17:28.555Z,86.10
2018-04-10T19:19:57.465Z,86.30
2018-04-10T19:22:27.490Z,86.10
2018-04-10T19:24:56.883Z,86.00
2018-04-10T19:27:25.963Z,86.00
2018-04-10T19:29:55.073Z,85.90
2018-04-10T19:32:24.085Z,85.80
2018-04-10T19:34:53.122Z,86.10
2018-04-10T19:37:22.133Z,86.00
2018-04-10T19:39:51.048Z,86.50
2018-04-10T19:42:20.023Z,86.60
2018-04-10T19:44:48.967Z,87.20
2018-04-10T19:47:17.886Z,87.30
2018-04-10T19:49:46.874Z,87.20
2018-04-10T19:52:15.837Z,86.70
2018-04-10T19:54:44.758Z,86.80
2018-04-10T19:57:13.677Z,86.50
2018-04-10T19:59:42.564Z,86.20
2018-04-10T20:02:11.501Z,86.40
2018-04-10T20:04:40.461Z,86.30
2018-04-10T20:07:09.437Z,86.60
2018-04-10T20:09:38.369Z,86.50
2018-04-10T20:12:07.343Z,86.50
2018-04-10T20:14:36.296Z,86.50
2018-04-10T20:17:05.227Z,86.60
2018-04-10T20:19:34.229Z,87.00
2018-04-10T20:22:03.166Z,87.20
2018-04-10T20:24:32.109Z,88.10
2018-04-10T20:27:01.282Z,88.50
2018-04-10T20:29:30.226Z,89.10
2018-04-10T20:31:59.174Z,90.00
2018-04-10T20:34:28.152Z,89.40
2018-04-10T20:36:57.115Z,89.00
2018-04-10T20:39:26.065Z,89.30
2018-04-10T20:41:55.021Z,88.90
2018-04-10T20:44:23.982Z,88.80
2018-04-10T20:46:53.707Z,89.10
2018-04-10T20:49:22.671Z,89.00
2018-04-10T20:51:51.614Z,89.50
2018-04-10T20:54:20.539Z,89.10
2018-04-10T20:56:49.480Z,88.40
2018-04-10T20:59:18.422Z,88.80
2018-04-10T21:01:47.376Z,88.80
2018-04-10T21:04:16.315Z,88.90
2018-04-10T21:06:45.199Z,88.70
2018-04-10T21:09:14.137Z,88.50
2018-04-10T21:11:43.077Z,88.60
2018-04-10T21:14:12.014Z,88.70
2018-04-10T21:16:40.911Z,89.20
2018-04-10T21:19:09.853Z,89.10
2018-04-10T21:21:38.781Z,89.50
2018-04-10T21:24:07.721Z,89.70
2018-04-10T21:26:36.686Z,89.20
2018-04-10T21:29:05.660Z,88.90
2018-04-10T21:31:34.601Z,88.60
2018-04-10T21:34:03.576Z,88.50
2018-04-10T21:36:32.541Z,88.10
2018-04-10T21:39:01.481Z,88.60
2018-04-10T21:41:30.433Z,88.90
2018-04-10T21:43:59.390Z,88.50
2018-04-10T21:46:29.035Z,87.90
2018-04-10T21:48:57.985Z,87.90
2018-04-10T21:51:27.683Z,88.10
2018-04-10T21:53:56.597Z,88.10
2018-04-10T21:56:25.544Z,88.00
2018-04-10T21:58:54.441Z,86.70
2018-04-10T22:01:23.371Z,86.60
2018-04-10T22:03:53.065Z,87.20
2018-04-10T22:06:22.743Z,87.30
2018-04-10T22:08:51.713Z,86.90
2018-04-10T22:11:20.682Z,87.00
2018-04-10T22:13:49.617Z,87.20
2018-04-10T22:16:18.560Z,87.10
2018-04-10T22:18:47.501Z,86.60
2018-04-10T22:21:16.429Z,85.70
2018-04-10T22:23:46.142Z,85.40
2018-04-10T22:26:15.052Z,85.40
2018-04-10T22:28:43.985Z,85.50
2018-04-10T22:31:13.138Z,86.20
2018-04-10T22:33:42.024Z,86.10
2018-04-10T22:36:10.957Z,85.80
2018-04-10T22:38:39.864Z,86.00
2018-04-10T22:41:09.600Z,86.40
2018-04-10T22:43:38.526Z,86.30
2018-04-10T22:46:07.479Z,87.00
2018-04-10T22:48:36.410Z,86.40
2018-04-10T22:51:05.346Z,86.60
2018-04-10T22:53:34.281Z,86.60
2018-04-10T22:56:03.266Z,86.10
2018-04-10T22:58:32.170Z,86.20
2018-04-10T23:01:01.086Z,85.10
2018-04-10T23:03:30.078Z,83.90
2018-04-10T23:05:59.023Z,83.40
2018-04-10T23:08:27.942Z,80.70
2018-04-10T23:10:56.878Z,84.10
2018-04-10T23:13:27.608Z,84.00
2018-04-10T23:15:56.562Z,84.00
2018-04-10T23:18:25.482Z,83.90
2018-04-10T23:20:54.430Z,83.20
2018-04-10T23:23:23.379Z,81.60
2018-04-10T23:25:52.322Z,83.00
2018-04-10T23:28:21.257Z,83.30
2018-04-10T23:30:50.180Z,84.10
2018-04-10T23:33:19.938Z,84.20
2018-04-10T23:35:48.870Z,84.10
2018-04-10T23:38:18.600Z,85.50
2018-04-10T23:40:47.523Z,85.00
2018-04-10T23:43:16.424Z,84.80
2018-04-10T23:45:45.350Z,85.20
2018-04-10T23:48:14.247Z,85.90
2018-04-10T23:50:43.205Z,86.20
2018-04-10T23:53:12.211Z,86.30
2018-04-10T23:55:41.128Z,85.70
2018-04-10T23:58:10.822Z,86.50
